createdAt,value
2023-04-16T00:01:25.749Z,96878.97
2023-04-16T00:03:52.596Z,96880.13
2023-04-16T00:06:19.114Z,96873.25
2023-04-16T00:08:45.725Z,96875.31
2023-04-16T00:11:12.364Z,96881.03
2023-04-16T00:13:38.796Z,96885.50
2023-04-16T00:16:05.599Z,96880.38
2023-04-16T00:18:32.094Z,96883.34
2023-04-16T00:20:59.542Z,96878.88
2023-04-16T00:23:25.961Z,96877.50
2023-04-16T00:25:53.799Z,96888.00
2023-04-16T00:28:20.450Z,96887.56
2023-04-16T00:30:47.051Z,96882.88
2023-04-16T00:33:13.572Z,96881.03
2023-04-16T00:35:40.084Z,96882.63
2023-04-16T00:38:06.614Z,96886.72
2023-04-16T00:40:33.011Z,96888.78
2023-04-16T00:42:59.449Z,96886.16
2023-04-16T00:45:26.142Z,96882.63
2023-04-16T00:47:52.566Z,96883.19
2023-04-16T00:50:19.149Z,96889.94
2023-04-16T00:52:47.540Z,96892.69
2023-04-16T00:55:15.326Z,96889.03
2023-04-16T00:57:41.793Z,96891.00
2023-04-16T01:00:08.776Z,96886.88
2023-04-16T01:02:35.816Z,96895.44
2023-04-16T01:05:04.190Z,96898.19
2023-04-16T01:07:30.759Z,96888.28
2023-04-16T01:09:57.248Z,96896.00
2023-04-16T01:12:23.694Z,96890.72
2023-04-16T01:14:50.589Z,96896.34
2023-04-16T01:17:17.002Z,96896.34
2023-04-16T01:19:43.367Z,96894.75
2023-04-16T01:22:09.788Z,96896.34
2023-04-16T01:24:36.558Z,96902.63
2023-04-16T01:27:03.123Z,96902.75
2023-04-16T01:29:29.875Z,96902.75
2023-04-16T01:31:56.287Z,96902.75
2023-04-16T01:34:23.100Z,96900.69
2023-04-16T01:36:49.578Z,96904.78
2023-04-16T01:39:16.491Z,96906.06
2023-04-16T01:41:43.710Z,96906.06
2023-04-16T01:44:10.260Z,96904.78
2023-04-16T01:46:37.846Z,96904.00
2023-04-16T01:49:04.807Z,96904.78
2023-04-16T01:51:32.162Z,96906.84
2023-04-16T01:53:58.967Z,96907.88
2023-04-16T01:56:25.797Z,96900.19
2023-04-16T01:58:53.324Z,96902.25
2023-04-16T02:01:20.214Z,96900.63
2023-04-16T02:03:47.635Z,96899.97
2023-04-16T02:06:14.722Z,96900.88
2023-04-16T02:08:41.593Z,96902.50
2023-04-16T02:11:08.247Z,96906.16
2023-04-16T02:13:34.906Z,96898.84
2023-04-16T02:16:02.437Z,96901.00
2023-04-16T02:18:28.962Z,96902.63
2023-04-16T02:20:58.555Z,96901.59
2023-04-16T02:23:25.012Z,96907.28
2023-04-16T02:25:51.558Z,96907.06
2023-04-16T02:28:18.112Z,96909.91
2023-04-16T02:30:44.746Z,96901.59
2023-04-16T02:33:12.459Z,96907.28
2023-04-16T02:35:40.091Z,96906.16
2023-04-16T02:38:07.665Z,96911.84
2023-04-16T02:40:34.183Z,96912.66
2023-04-16T02:43:00.977Z,96913.44
2023-04-16T02:45:27.657Z,96910.03
2023-04-16T02:47:54.552Z,96911.56
2023-04-16T02:50:21.060Z,96914.13
2023-04-16T02:52:48.595Z,96910.69
2023-04-16T02:55:15.388Z,96907.63
2023-04-16T02:57:42.505Z,96917.06
2023-04-16T03:00:09.829Z,96914.19
2023-04-16T03:02:36.446Z,96918.00
2023-04-16T03:05:03.502Z,96920.75
2023-04-16T03:07:30.155Z,96915.94
2023-04-16T03:09:56.918Z,96913.69
2023-04-16T03:12:23.458Z,96915.94
2023-04-16T03:14:52.333Z,96915.94
2023-04-16T03:17:18.725Z,96918.56
2023-04-16T03:19:45.338Z,96920.66
2023-04-16T03:22:11.992Z,96921.00
2023-04-16T03:24:38.362Z,96921.47
2023-04-16T03:27:04.830Z,96923.06
2023-04-16T03:29:31.207Z,96930.81
2023-04-16T03:31:57.695Z,96925.22
2023-04-16T03:34:24.368Z,96919.97
2023-04-16T03:36:50.939Z,96933.31
2023-04-16T03:39:17.404Z,96930.53
2023-04-16T03:41:43.899Z,96932.41
2023-04-16T03:44:10.555Z,96929.66
2023-04-16T03:46:37.155Z,96934.44
2023-04-16T03:49:03.831Z,96939.50
2023-04-16T03:51:30.298Z,96932.41
2023-04-16T03:53:56.721Z,96932.41
2023-04-16T03:56:23.290Z,96933.31
2023-04-16T03:58:49.953Z,96938.13
2023-04-16T04:01:16.415Z,96936.06
2023-04-16T04:03:43.092Z,96931.41
2023-04-16T04:06:10.053Z,96935.63
2023-04-16T04:08:36.594Z,96929.09
2023-04-16T04:11:03.128Z,96942.13
2023-04-16T04:13:29.521Z,96937.41
2023-04-16T04:15:56.015Z,96940.47
2023-04-16T04:18:22.418Z,96942.19
2023-04-16T04:20:48.851Z,96935.47
2023-04-16T04:23:15.586Z,96938.72
2023-04-16T04:25:42.016Z,96947.19
2023-04-16T04:28:08.402Z,96944.78
2023-04-16T04:30:35.840Z,96946.75
2023-04-16T04:33:02.558Z,96946.75
2023-04-16T04:35:29.132Z,96947.88
2023-04-16T04:37:55.621Z,96952.31
2023-04-16T04:40:22.043Z,96960.53
2023-04-16T04:42:48.498Z,96957.50
2023-04-16T04:45:15.207Z,96956.56
2023-04-16T04:47:41.806Z,96969.69
2023-04-16T04:50:08.604Z,96965.00
2023-04-16T04:52:35.281Z,96967.84
2023-04-16T04:55:01.652Z,96975.06
2023-04-16T04:57:28.115Z,96970.97
2023-04-16T04:59:54.731Z,96978.63
2023-04-16T05:02:21.209Z,96982.09
2023-04-16T05:04:47.671Z,96992.63
2023-04-16T05:07:14.428Z,96980.16
2023-04-16T05:09:41.060Z,96989.06
2023-04-16T05:12:07.503Z,96993.28
2023-04-16T05:14:34.080Z,96992.25
2023-04-16T05:17:01.011Z,96994.22
2023-04-16T05:19:27.399Z,96995.03
2023-04-16T05:21:54.348Z,96999.91
2023-04-16T05:24:20.885Z,97002.31
2023-04-16T05:26:47.263Z,97007.22
2023-04-16T05:29:13.959Z,97013.03
2023-04-16T05:31:40.947Z,97015.88
2023-04-16T05:34:07.480Z,97008.00
2023-04-16T05:36:33.855Z,97011.22
2023-04-16T05:39:00.234Z,97008.16
2023-04-16T05:41:26.870Z,97019.22
2023-04-16T05:43:53.345Z,97020.72
2023-04-16T05:46:19.925Z,97022.06
2023-04-16T05:48:46.506Z,97030.00
2023-04-16T05:51:12.869Z,97030.00
2023-04-16T05:53:39.245Z,97026.44
2023-04-16T05:56:06.088Z,97027.53
2023-04-16T05:58:32.480Z,97034.50
2023-04-16T06:00:58.864Z,97032.97
2023-04-16T06:03:25.488Z,97041.84
2023-04-16T06:05:52.014Z,97037.19
2023-04-16T06:08:18.582Z,97043.00
2023-04-16T06:10:48.461Z,97040.53
2023-04-16T06:13:14.865Z,97046.50
2023-04-16T06:15:41.264Z,97040.09
2023-04-16T06:18:07.811Z,97057.16
2023-04-16T06:20:34.333Z,97051.56
2023-04-16T06:23:00.749Z,97055.34
2023-04-16T06:25:27.265Z,97054.91
2023-04-16T06:27:53.655Z,97055.59
2023-04-16T06:30:20.105Z,97047.84
2023-04-16T06:32:46.637Z,97044.03
2023-04-16T06:35:13.617Z,97047.91
2023-04-16T06:37:40.059Z,97056.28
2023-04-16T06:40:07.026Z,97055.41
2023-04-16T06:42:33.467Z,97051.03
2023-04-16T06:44:59.905Z,97057.91
2023-04-16T06:47:27.080Z,97054.38
2023-04-16T06:49:53.584Z,97057.59
2023-04-16T06:52:19.997Z,97060.78
2023-04-16T06:54:46.389Z,97058.28
2023-04-16T06:57:12.844Z,97067.19
2023-04-16T06:59:39.519Z,97068.13
2023-04-16T07:02:06.627Z,97069.38
2023-04-16T07:04:33.164Z,97071.78
2023-04-16T07:06:59.593Z,97080.69
2023-04-16T07:09:27.267Z,97080.25
2023-04-16T07:11:54.513Z,97093.53
2023-04-16T07:14:21.011Z,97086.44
2023-04-16T07:16:47.538Z,97083.44
2023-04-16T07:19:13.951Z,97090.09
2023-04-16T07:21:41.983Z,97081.78
2023-04-16T07:24:08.476Z,97083.03
2023-04-16T07:26:35.195Z,97090.31
2023-04-16T07:29:01.553Z,97092.72
2023-04-16T07:31:28.067Z,97090.91
2023-04-16T07:33:54.664Z,97091.03
2023-04-16T07:36:21.256Z,97089.13
2023-04-16T07:38:47.714Z,97097.44
2023-04-16T07:41:15.283Z,97095.41
2023-04-16T07:43:41.638Z,97103.44
2023-04-16T07:46:08.205Z,97105.31
2023-04-16T07:48:34.570Z,97100.84
2023-04-16T07:51:01.255Z,97104.44
2023-04-16T07:53:27.722Z,97105.44
2023-04-16T07:55:54.093Z,97107.38
2023-04-16T07:58:20.521Z,97102.38
2023-04-16T08:00:47.489Z,97114.84
2023-04-16T08:03:16.138Z,97116.34
2023-04-16T08:05:42.986Z,97120.88
2023-04-16T08:08:09.537Z,97120.78
2023-04-16T08:10:36.056Z,97124.44
2023-04-16T08:13:02.646Z,97126.25
2023-04-16T08:15:29.408Z,97134.50
2023-04-16T08:17:56.134Z,97136.19
2023-04-16T08:20:22.623Z,97136.09
2023-04-16T08:22:49.316Z,97135.31
2023-04-16T08:25:15.782Z,97147.38
2023-04-16T08:27:42.279Z,97151.31
2023-04-16T08:30:08.820Z,97150.28
2023-04-16T08:32:35.376Z,97157.75
2023-04-16T08:35:02.094Z,97169.13
2023-04-16T08:37:28.806Z,97165.09
2023-04-16T08:39:55.420Z,97167.09
2023-04-16T08:42:30.034Z,97165.34
2023-04-16T08:45:11.478Z,97163.50
2023-04-16T08:47:38.677Z,97166.50
2023-04-16T08:50:06.092Z,97174.97
2023-04-16T08:52:32.672Z,97175.63
2023-04-16T08:55:12.680Z,97177.03
2023-04-16T08:57:47.168Z,97176.00
2023-04-16T09:00:13.998Z,97177.16
2023-04-16T09:02:41.214Z,97183.44
2023-04-16T09:05:09.515Z,97187.09
2023-04-16T09:07:36.630Z,97175.94
2023-04-16T09:10:03.469Z,97178.88
2023-04-16T09:12:31.230Z,97187.66
2023-04-16T09:14:59.728Z,97188.34
2023-04-16T09:17:27.166Z,97193.81
2023-04-16T09:19:54.837Z,97200.81
2023-04-16T09:22:21.294Z,97189.13
2023-04-16T09:24:47.809Z,97197.16
2023-04-16T09:27:14.231Z,97190.56
2023-04-16T09:29:42.043Z,97197.66
2023-04-16T09:32:10.259Z,97190.13
2023-04-16T09:34:55.909Z,97195.63
2023-04-16T09:37:22.359Z,97193.22
2023-04-16T09:40:03.629Z,97208.91
2023-04-16T09:42:35.802Z,97201.59
2023-04-16T09:45:05.531Z,97208.22
2023-04-16T09:47:41.946Z,97203.91
2023-04-16T09:50:12.252Z,97207.88
2023-04-16T09:52:39.224Z,97214.00
2023-04-16T09:55:06.466Z,97212.81
2023-04-16T09:57:32.953Z,97212.13
2023-04-16T10:00:08.825Z,97217.84
2023-04-16T10:02:39.019Z,97213.97
2023-04-16T10:05:06.380Z,97220.38
2023-04-16T10:07:36.912Z,97218.53
2023-04-16T10:10:04.444Z,97226.09
2023-04-16T10:12:32.658Z,97218.09
2023-04-16T10:14:59.191Z,97225.31
2023-04-16T10:17:26.364Z,97222.88
2023-04-16T10:19:54.615Z,97233.91
2023-04-16T10:22:21.200Z,97227.59
2023-04-16T10:24:48.800Z,97232.97
2023-04-16T10:27:17.234Z,97225.50
2023-04-16T10:29:44.527Z,97230.66
2023-04-16T10:32:11.784Z,97237.53
2023-04-16T10:34:39.126Z,97235.69
2023-04-16T10:37:05.526Z,97235.03
2023-04-16T10:39:37.524Z,97237.34
2023-04-16T10:42:08.271Z,97236.97
2023-04-16T10:44:34.748Z,97233.78
2023-04-16T10:47:01.147Z,97230.47
2023-04-16T10:49:27.620Z,97236.06
2023-04-16T10:52:03.615Z,97236.88
2023-04-16T10:54:31.662Z,97234.56
2023-04-16T10:57:02.253Z,97235.75
2023-04-16T10:59:33.099Z,97238.81
2023-04-16T11:02:02.038Z,97234.03
2023-04-16T11:04:39.375Z,97235.97
2023-04-16T11:07:13.720Z,97236.97
2023-04-16T11:10:00.215Z,97239.84
2023-04-16T11:12:34.368Z,97240.75
2023-04-16T11:15:12.045Z,97235.69
2023-04-16T11:17:46.380Z,97235.78
2023-04-16T11:20:23.649Z,97241.00
2023-04-16T11:22:59.832Z,97245.25
2023-04-16T11:25:31.346Z,97243.22
2023-04-16T11:28:01.319Z,97245.16
2023-04-16T11:30:34.063Z,97255.03
2023-04-16T11:33:11.783Z,97248.16
2023-04-16T11:35:39.556Z,97248.72
2023-04-16T11:38:08.909Z,97250.78
2023-04-16T11:40:36.013Z,97251.41
2023-04-16T11:43:04.165Z,97255.31
2023-04-16T11:45:30.814Z,97253.91
2023-04-16T11:47:57.798Z,97254.94
2023-04-16T11:50:26.186Z,97252.44
2023-04-16T11:52:54.311Z,97258.41
2023-04-16T11:55:21.882Z,97257.75
2023-04-16T11:57:49.126Z,97255.91
2023-04-16T12:00:18.984Z,97252.22
2023-04-16T12:02:53.001Z,97261.06
2023-04-16T12:05:31.350Z,97265.06
2023-04-16T12:07:59.172Z,97259.09
2023-04-16T12:10:27.055Z,97262.06
2023-04-16T12:12:53.531Z,97264.69
2023-04-16T12:15:19.948Z,97264.31
2023-04-16T12:17:46.508Z,97259.06
2023-04-16T12:20:15.431Z,97265.59
2023-04-16T12:22:46.836Z,97272.50
2023-04-16T12:25:16.423Z,97267.25
2023-04-16T12:27:52.982Z,97262.06
2023-04-16T12:30:22.598Z,97273.06
2023-04-16T12:32:51.682Z,97270.78
2023-04-16T12:35:32.231Z,97265.53
2023-04-16T12:37:59.132Z,97265.16
2023-04-16T12:40:26.266Z,97267.59
2023-04-16T12:42:52.889Z,97266.25
2023-04-16T12:45:19.330Z,97272.00
2023-04-16T12:47:46.624Z,97267.59
2023-04-16T12:50:13.061Z,97269.91
2023-04-16T12:52:39.574Z,97267.91
2023-04-16T12:55:06.594Z,97271.91
2023-04-16T12:57:33.179Z,97269.84
2023-04-16T12:59:59.678Z,97265.69
2023-04-16T13:02:26.398Z,97267.72
2023-04-16T13:04:53.678Z,97263.56
2023-04-16T13:07:20.707Z,97268.34
2023-04-16T13:09:47.169Z,97260.47
2023-04-16T13:12:13.709Z,97260.25
2023-04-16T13:14:40.250Z,97261.28
2023-04-16T13:17:06.637Z,97256.09
2023-04-16T13:19:33.124Z,97262.72
2023-04-16T13:21:59.578Z,97267.41
2023-04-16T13:24:26.135Z,97266.50
2023-04-16T13:26:52.612Z,97268.19
2023-04-16T13:29:22.885Z,97261.78
2023-04-16T13:31:49.422Z,97268.78
2023-04-16T13:34:15.893Z,97268.69
2023-04-16T13:36:43.465Z,97261.59
2023-04-16T13:39:12.958Z,97272.06
2023-04-16T13:41:39.706Z,97274.59
2023-04-16T13:44:06.765Z,97269.00
2023-04-16T13:46:33.535Z,97270.38
2023-04-16T13:49:00.143Z,97276.00
2023-04-16T13:51:27.663Z,97272.31
2023-04-16T13:53:56.002Z,97267.63
2023-04-16T13:56:22.530Z,97272.09
2023-04-16T13:58:49.211Z,97271.50
2023-04-16T14:01:15.677Z,97272.78
2023-04-16T14:03:42.258Z,97265.59
2023-04-16T14:06:08.736Z,97269.34
2023-04-16T14:08:35.210Z,97258.34
2023-04-16T14:11:02.138Z,97263.50
2023-04-16T14:13:28.600Z,97259.41
2023-04-16T14:15:55.659Z,97264.63
2023-04-16T14:18:22.125Z,97261.44
2023-04-16T14:20:48.646Z,97266.72
2023-04-16T14:23:15.108Z,97265.09
2023-04-16T14:25:41.682Z,97263.50
2023-04-16T14:28:09.340Z,97268.06
2023-04-16T14:30:35.730Z,97270.16
2023-04-16T14:33:06.376Z,97267.31
2023-04-16T14:35:34.001Z,97257.97
2023-04-16T14:38:01.281Z,97264.84
2023-04-16T14:40:27.766Z,97266.72
2023-04-16T14:42:54.241Z,97264.66
2023-04-16T14:45:20.952Z,97267.97
2023-04-16T14:47:48.109Z,97266.50
2023-04-16T14:50:15.568Z,97262.13
2023-04-16T14:52:42.151Z,97263.25
2023-04-16T14:55:08.610Z,97273.56
2023-04-16T14:57:35.040Z,97270.09
2023-04-16T15:00:01.607Z,97276.06
2023-04-16T15:02:28.308Z,97275.50
2023-04-16T15:04:54.873Z,97274.81
2023-04-16T15:07:22.065Z,97270.53
2023-04-16T15:09:48.534Z,97273.50
2023-04-16T15:12:15.515Z,97274.09
2023-04-16T15:14:43.323Z,97275.56
2023-04-16T15:17:09.957Z,97272.38
2023-04-16T15:19:36.692Z,97267.09
2023-04-16T15:22:03.357Z,97278.06
2023-04-16T15:24:29.784Z,97279.56
2023-04-16T15:26:56.364Z,97279.69
2023-04-16T15:29:22.721Z,97282.53
2023-04-16T15:31:49.238Z,97279.34
2023-04-16T15:34:15.765Z,97278.06
2023-04-16T15:36:42.230Z,97275.31
2023-04-16T15:39:09.530Z,97277.75
2023-04-16T15:41:44.349Z,97278.72
2023-04-16T15:44:23.691Z,97286.94
2023-04-16T15:46:50.318Z,97289.72
2023-04-16T15:49:16.906Z,97290.16
2023-04-16T15:51:43.410Z,97279.19
2023-04-16T15:54:09.923Z,97286.94
2023-04-16T15:56:36.387Z,97287.81
2023-04-16T15:59:03.815Z,97289.44
2023-04-16T16:01:31.239Z,97294.41
2023-04-16T16:03:58.008Z,97292.56
2023-04-16T16:06:24.684Z,97295.28
2023-04-16T16:08:51.196Z,97299.97
2023-04-16T16:11:17.834Z,97299.16
2023-04-16T16:13:44.256Z,97299.97
2023-04-16T16:16:10.935Z,97296.31
2023-04-16T16:18:37.503Z,97299.75
2023-04-16T16:21:03.853Z,97300.25
2023-04-16T16:23:30.361Z,97301.41
2023-04-16T16:25:56.908Z,97292.03
2023-04-16T16:28:24.961Z,97295.94
2023-04-16T16:30:53.726Z,97292.72
2023-04-16T16:33:20.689Z,97300.75
2023-04-16T16:35:47.508Z,97297.81
2023-04-16T16:38:13.955Z,97304.66
2023-04-16T16:40:40.372Z,97301.25
2023-04-16T16:43:06.941Z,97298.50
2023-04-16T16:45:33.556Z,97302.16
2023-04-16T16:48:00.237Z,97297.94
2023-04-16T16:50:26.997Z,97297.00
2023-04-16T16:52:53.503Z,97300.75
2023-04-16T16:55:20.962Z,97303.41
2023-04-16T16:57:47.411Z,97304.41
2023-04-16T17:00:15.841Z,97311.59
2023-04-16T17:02:42.914Z,97302.47
2023-04-16T17:05:09.781Z,97313.44
2023-04-16T17:07:36.428Z,97307.81
2023-04-16T17:10:06.001Z,97306.66
2023-04-16T17:12:32.520Z,97312.44
2023-04-16T17:14:59.064Z,97312.91
2023-04-16T17:17:27.390Z,97314.53
2023-04-16T17:19:54.035Z,97311.97
2023-04-16T17:22:20.588Z,97304.16
2023-04-16T17:24:47.197Z,97309.81
2023-04-16T17:27:13.641Z,97305.78
2023-04-16T17:29:40.141Z,97308.41
2023-04-16T17:32:06.651Z,97307.59
2023-04-16T17:34:33.146Z,97317.09
2023-04-16T17:36:59.652Z,97317.38
2023-04-16T17:39:26.383Z,97319.41
2023-04-16T17:41:54.712Z,97314.97
2023-04-16T17:44:23.133Z,97318.25
2023-04-16T17:46:49.681Z,97317.91
2023-04-16T17:49:16.124Z,97314.47
2023-04-16T17:51:44.616Z,97328.66
2023-04-16T17:54:11.310Z,97324.41
2023-04-16T17:56:37.981Z,97334.94
2023-04-16T17:59:04.917Z,97331.16
2023-04-16T18:01:31.584Z,97326.91
2023-04-16T18:03:58.282Z,97326.91
2023-04-16T18:06:24.992Z,97327.94
2023-04-16T18:08:51.342Z,97338.03
2023-04-16T18:11:17.762Z,97335.41
2023-04-16T18:13:44.409Z,97337.81
2023-04-16T18:16:17.439Z,97341.09
2023-04-16T18:18:44.539Z,97343.16
2023-04-16T18:21:11.374Z,97343.16
2023-04-16T18:23:37.883Z,97343.16
2023-04-16T18:26:04.363Z,97341.09
2023-04-16T18:28:30.921Z,97345.19
2023-04-16T18:30:59.171Z,97340.59
2023-04-16T18:33:50.095Z,97351.69
2023-04-16T18:36:12.271Z,97352.50
2023-04-16T18:38:49.421Z,97353.09
2023-04-16T18:41:23.996Z,97346.81
2023-04-16T18:43:50.539Z,97356.47
2023-04-16T18:46:17.392Z,97357.63
2023-04-16T18:48:47.113Z,97365.72
2023-04-16T18:51:15.553Z,97358.41
2023-04-16T18:53:44.204Z,97363.16
2023-04-16T18:56:11.560Z,97370.91
2023-04-16T18:58:38.097Z,97367.63
2023-04-16T19:01:05.254Z,97369.44
2023-04-16T19:03:32.273Z,97364.19
2023-04-16T19:05:58.825Z,97372.06
2023-04-16T19:08:25.302Z,97368.41
2023-04-16T19:10:51.826Z,97372.53
2023-04-16T19:13:18.311Z,97370.56
2023-04-16T19:15:44.857Z,97379.41
2023-04-16T19:18:11.268Z,97377.94
2023-04-16T19:20:38.097Z,97376.03
2023-04-16T19:23:05.574Z,97376.91
2023-04-16T19:25:32.549Z,97379.84
2023-04-16T19:27:59.306Z,97369.75
2023-04-16T19:30:26.421Z,97381.44
2023-04-16T19:32:55.149Z,97387.44
2023-04-16T19:35:22.356Z,97390.22
2023-04-16T19:37:48.841Z,97379.53
2023-04-16T19:40:15.349Z,97376.78
2023-04-16T19:42:41.903Z,97377.78
2023-04-16T19:45:08.594Z,97382.19
2023-04-16T19:47:35.086Z,97378.16
2023-04-16T19:50:01.462Z,97378.88
2023-04-16T19:52:27.894Z,97383.53
2023-04-16T19:54:54.529Z,97378.69
2023-04-16T19:57:20.975Z,97383.94
2023-04-16T19:59:47.430Z,97383.28
2023-04-16T20:02:13.903Z,97383.66
2023-04-16T20:04:40.320Z,97381.91
2023-04-16T20:07:06.777Z,97390.38
2023-04-16T20:09:33.228Z,97383.66
2023-04-16T20:12:00.733Z,97388.69
2023-04-16T20:14:27.200Z,97387.09
2023-04-16T20:16:53.733Z,97392.13
2023-04-16T20:19:20.291Z,97390.38
2023-04-16T20:21:46.740Z,97395.63
2023-04-16T20:24:15.294Z,97389.34
2023-04-16T20:26:41.767Z,97390.50
2023-04-16T20:29:08.335Z,97383.94
2023-04-16T20:31:34.829Z,97385.19
2023-04-16T20:34:01.291Z,97385.69
2023-04-16T20:36:27.884Z,97377.06
2023-04-16T20:38:54.341Z,97382.25
2023-04-16T20:41:21.318Z,97379.28
2023-04-16T20:43:50.139Z,97384.53
2023-04-16T20:46:17.698Z,97379.84
2023-04-16T20:48:44.487Z,97378.69
2023-04-16T20:51:10.983Z,97381.31
2023-04-16T20:53:38.096Z,97380.28
2023-04-16T20:56:05.225Z,97379.69
2023-04-16T20:58:31.649Z,97377.19
2023-04-16T21:00:58.165Z,97372.81
2023-04-16T21:03:24.858Z,97380.72
2023-04-16T21:05:53.238Z,97376.50
2023-04-16T21:08:23.406Z,97369.69
2023-04-16T21:10:50.487Z,97382.03
2023-04-16T21:13:17.193Z,97377.59
2023-04-16T21:15:45.491Z,97377.13
2023-04-16T21:18:12.686Z,97378.97
2023-04-16T21:20:39.751Z,97375.63
2023-04-16T21:23:06.384Z,97379.28
2023-04-16T21:25:33.580Z,97378.81
2023-04-16T21:28:00.030Z,97373.94
2023-04-16T21:30:26.474Z,97373.94
2023-04-16T21:32:53.022Z,97369.03
2023-04-16T21:35:19.567Z,97368.59
2023-04-16T21:37:46.212Z,97373.47
2023-04-16T21:40:12.670Z,97375.44
2023-04-16T21:42:42.389Z,97373.88
2023-04-16T21:45:10.416Z,97377.06
2023-04-16T21:47:37.845Z,97370.63
2023-04-16T21:50:04.663Z,97377.06
2023-04-16T21:52:32.700Z,97370.34
2023-04-16T21:55:00.436Z,97372.19
2023-04-16T21:57:27.076Z,97373.88
2023-04-16T21:59:53.508Z,97367.88
2023-04-16T22:02:20.163Z,97374.81
2023-04-16T22:04:47.353Z,97366.59
2023-04-16T22:07:13.805Z,97364.22
2023-04-16T22:09:40.865Z,97367.88
2023-04-16T22:12:10.066Z,97363.03
2023-04-16T22:14:38.352Z,97367.88
2023-04-16T22:17:05.726Z,97368.69
2023-04-16T22:19:32.204Z,97368.75
2023-04-16T22:21:58.641Z,97369.63
2023-04-16T22:24:25.057Z,97363.34
2023-04-16T22:26:51.492Z,97366.78
2023-04-16T22:29:17.982Z,97361.72
2023-04-16T22:31:44.420Z,97363.75
2023-04-16T22:34:11.092Z,97360.09
2023-04-16T22:36:37.526Z,97362.53
2023-04-16T22:39:08.349Z,97358.22
2023-04-16T22:41:38.090Z,97353.69
2023-04-16T22:44:04.698Z,97354.84
2023-04-16T22:46:31.285Z,97362.97
2023-04-16T22:48:58.082Z,97353.22
2023-04-16T22:51:24.678Z,97364.78
2023-04-16T22:53:51.871Z,97354.03
2023-04-16T22:56:21.845Z,97356.88
2023-04-16T22:58:51.223Z,97357.69
2023-04-16T23:01:17.803Z,97351.06
2023-04-16T23:03:44.436Z,97353.31
2023-04-16T23:06:10.958Z,97355.38
2023-04-16T23:08:37.341Z,97354.72
2023-04-16T23:11:03.829Z,97360.72
2023-04-16T23:13:30.314Z,97361.88
2023-04-16T23:15:57.071Z,97357.88
2023-04-16T23:18:23.782Z,97357.47
2023-04-16T23:20:53.622Z,97353.91
2023-04-16T23:23:20.058Z,97353.09
2023-04-16T23:25:46.683Z,97355.31
2023-04-16T23:28:13.102Z,97359.97
2023-04-16T23:30:39.818Z,97356.59
2023-04-16T23:33:06.871Z,97351.47
2023-04-16T23:35:33.522Z,97343.03
2023-04-16T23:37:59.943Z,97351.78
2023-04-16T23:40:26.489Z,97344.31
2023-04-16T23:42:52.913Z,97347.69
2023-04-16T23:45:19.394Z,97352.34
2023-04-16T23:47:46.033Z,97347.53
2023-04-16T23:50:12.631Z,97343.44
2023-04-16T23:52:39.044Z,97344.41
2023-04-16T23:55:05.712Z,97346.66
2023-04-16T23:57:32.208Z,97345.66
2023-04-16T23:59:58.715Z,97355.22
